66VG weather

Southside Regional Medical Center Heliport
Petersburg, Virginia, United States

Public forecast

Using degrees Fahrenheit for public forecast. Weather courtesy of forecast.io.

Closest aviation weather report (METAR) to Southside Regional Medical Center Heliport

Closest report is Dinwiddie County Airport, 7.0 nm (13.0 km) W. Retrieved 2019/10/23 03:35 UTC (0 seconds ago):

KPTB 230335Z AUTO 34005KT 10SM OVC007 16/14 A2989 RMK AO2 T01580142

Closest aviation forecast (TAF) to Southside Regional Medical Center Heliport

Closest forecast is Richmond International Airport, 19.5 nm (36.1 km) N. Retrieved 2019-10-23 00:36 UTC (3 hours ago):

TAF KRIC 222335Z 2300/2324 28006KT P6SM BKN015 FM230200 27005KT P6SM BKN045 FM230300 31004KT P6SM BKN100 FM230900 29006KT P6SM SKC